Rechercher aéroport 
image banner adimage banner adimage banner ad
image banner ad

CL21 - Sutter Amador Hospital

Situé à Jackson, United States

ICAO - CL21, IATA -

Données fournies par Airmate  

Information générale

Coordonnées: N38°21'4" W120°45'50"
Élévation : 1246 feet MSL.
Variation magnétique : 16° East
Voir autres Aéroports à California

Données opérationnelles

Special qualification required
Heure actuelle UTC:
Heure actuelle locale:
METAR: KJAQ 262155Z AUTO 34006KT 10SM CLR 30/00 A2993 RMK AO1 T03000003
Voir NOTAMs / SUP AIP / TFR affectant cet aéroport [VIEW]
Fréquences de communication: [VIEW]

Pistes:

Coordonnées de l'aéroport

Adresse: Jackson United States

Vue satellite de CL21